Time;durP1;ratioP1;P1;durP2;ratioP2;P2;SDS_P1;SDS_P2;PMS_P1;PMS_P2;Temp;Humidity;BMP_temperature;BMP_pressure;BME280_temperature;BME280_humidity;BME280_pressure;Samples;Min_cycle;Max_cycle;Signal;HPM_P1;HPM_P2
2021/06/26 00:01:03;;;;;;;50.95;36.25;;;16.70;99.90;;;;;;5055011;28;20466;-67
2021/06/26 00:03:29;;;;;;;49.55;35.70;;;16.70;99.90;;;;;;5054972;28;20033;-67
2021/06/26 00:05:56;;;;;;;56.47;38.35;;;16.70;99.90;;;;;;5055198;28;20150;-68
2021/06/26 00:08:23;;;;;;;50.05;37.05;;;16.70;99.90;;;;;;5055085;28;20423;-67
2021/06/26 00:10:50;;;;;;;50.13;37.30;;;16.70;99.90;;;;;;5052848;28;20025;-67
2021/06/26 00:13:16;;;;;;;50.30;37.47;;;16.60;99.90;;;;;;5054798;28;20137;-67
2021/06/26 00:15:43;;;;;;;48.33;36.15;;;16.60;99.90;;;;;;5055032;28;20068;-67
2021/06/26 00:18:09;;;;;;;57.53;38.90;;;16.50;99.90;;;;;;5054712;28;20146;-68
2021/06/26 00:20:34;;;;;;;53.63;37.08;;;16.50;99.90;;;;;;5054888;28;20146;-67
2021/06/26 00:23:00;;;;;;;57.60;39.63;;;16.50;99.90;;;;;;5054577;28;20033;-68
2021/06/26 00:25:26;;;;;;;56.40;39.85;;;16.50;99.90;;;;;;5054859;28;20104;-67
2021/06/26 00:27:52;;;;;;;57.40;38.88;;;16.60;99.90;;;;;;5054136;28;20048;-67
2021/06/26 00:30:19;;;;;;;58.05;41.35;;;16.50;99.90;;;;;;5054745;28;20071;-68
2021/06/26 00:32:45;;;;;;;62.90;41.65;;;16.50;99.90;;;;;;5054664;28;20525;-68
2021/06/26 00:35:12;;;;;;;58.55;42.15;;;16.40;99.90;;;;;;5054655;28;20021;-67
2021/06/26 00:37:38;;;;;;;61.00;42.15;;;16.30;99.90;;;;;;5054591;28;20371;-67
2021/06/26 00:40:06;;;;;;;59.75;41.22;;;16.30;99.90;;;;;;5054520;28;20036;-67
2021/06/26 00:42:34;;;;;;;60.55;41.17;;;16.30;99.90;;;;;;5054511;28;20150;-67
2021/06/26 00:44:59;;;;;;;60.88;42.42;;;16.40;99.90;;;;;;5054581;28;20017;-68
2021/06/26 00:47:26;;;;;;;61.10;42.28;;;16.30;99.90;;;;;;5053842;28;20032;-67
2021/06/26 00:49:52;;;;;;;60.38;42.65;;;16.40;99.90;;;;;;5054403;28;20505;-67
2021/06/26 00:52:18;;;;;;;62.35;40.50;;;16.40;99.90;;;;;;5054131;28;20021;-67
2021/06/26 00:54:45;;;;;;;59.78;40.33;;;16.40;99.90;;;;;;5052898;28;20024;-67
2021/06/26 00:57:11;;;;;;;58.03;40.45;;;16.30;99.90;;;;;;5054317;28;20021;-67
2021/06/26 00:59:37;;;;;;;58.97;41.00;;;16.30;99.90;;;;;;5052825;28;20517;-67
2021/06/26 01:02:04;;;;;;;60.65;40.42;;;16.30;99.90;;;;;;5054203;28;20029;-68
2021/06/26 01:04:30;;;;;;;65.90;42.95;;;16.20;99.90;;;;;;5052768;28;20060;-67
2021/06/26 01:06:56;;;;;;;64.70;43.60;;;16.20;99.90;;;;;;5052881;28;20435;-68
2021/06/26 01:09:21;;;;;;;65.10;43.63;;;16.20;99.90;;;;;;5054105;28;20146;-68
2021/06/26 01:11:48;;;;;;;64.57;43.70;;;16.10;99.90;;;;;;5052632;28;20055;-67
2021/06/26 01:14:14;;;;;;;72.63;45.97;;;16.10;99.90;;;;;;5053776;28;20355;-67
2021/06/26 01:16:39;;;;;;;68.22;45.13;;;16.10;99.90;;;;;;5052333;28;20035;-67
2021/06/26 01:19:05;;;;;;;65.88;45.13;;;16.00;99.90;;;;;;5053966;28;20036;-68
2021/06/26 01:21:35;;;;;;;64.30;42.67;;;16.00;99.90;;;;;;5053997;28;20025;-67
2021/06/26 01:24:01;;;;;;;64.45;42.88;;;16.10;99.90;;;;;;5053261;28;20100;-68
2021/06/26 01:26:31;;;;;;;62.25;42.83;;;16.10;99.90;;;;;;5053539;28;20079;-67
2021/06/26 01:28:57;;;;;;;68.72;45.03;;;16.00;99.90;;;;;;5053899;28;20589;-67
2021/06/26 01:31:23;;;;;;;65.20;44.50;;;16.10;99.90;;;;;;5053580;28;20025;-67
2021/06/26 01:33:49;;;;;;;67.60;45.78;;;16.10;99.90;;;;;;5053856;28;20106;-68
2021/06/26 01:36:14;;;;;;;68.80;45.67;;;16.10;99.90;;;;;;5053581;28;20029;-68
2021/06/26 01:38:39;;;;;;;63.25;42.95;;;16.10;99.90;;;;;;5053502;28;20029;-67
2021/06/26 01:41:06;;;;;;;75.47;46.30;;;16.10;99.90;;;;;;5053175;28;20032;-67
2021/06/26 01:43:31;;;;;;;61.60;43.80;;;16.00;99.90;;;;;;5053712;28;20382;-67
2021/06/26 01:45:57;;;;;;;67.13;45.50;;;16.00;99.90;;;;;;5036178;28;20025;-67
2021/06/26 01:48:22;;;;;;;71.72;46.80;;;16.00;99.90;;;;;;5053053;28;20071;-67
2021/06/26 01:50:48;;;;;;;66.28;45.70;;;16.00;99.90;;;;;;5053160;28;20075;-67
2021/06/26 01:53:18;;;;;;;76.80;48.50;;;16.00;99.90;;;;;;5053635;28;20027;-67
2021/06/26 01:55:43;;;;;;;70.13;47.33;;;16.00;99.90;;;;;;5053107;28;20025;-67
2021/06/26 01:58:09;;;;;;;72.97;48.30;;;16.00;99.90;;;;;;5053367;28;20556;-67
2021/06/26 02:00:35;;;;;;;71.78;48.58;;;16.00;99.90;;;;;;5053573;28;20025;-67
2021/06/26 02:03:01;;;;;;;72.13;46.70;;;16.00;99.90;;;;;;5053595;28;20459;-68
2021/06/26 02:05:27;;;;;;;72.75;49.13;;;16.00;99.90;;;;;;5053558;28;20100;-68
2021/06/26 02:07:52;;;;;;;72.78;48.53;;;16.00;99.90;;;;;;5052843;28;20041;-67
2021/06/26 02:10:18;;;;;;;80.07;49.20;;;15.90;99.90;;;;;;5053512;28;20024;-67
2021/06/26 02:12:45;;;;;;;76.68;49.92;;;15.90;99.90;;;;;;5053491;28;20028;-68
2021/06/26 02:15:11;;;;;;;81.50;50.97;;;15.90;99.90;;;;;;5053470;28;20028;-67
2021/06/26 02:17:37;;;;;;;77.85;51.78;;;15.90;99.90;;;;;;5053433;28;20029;-67
2021/06/26 02:20:05;;;;;;;75.00;49.58;;;15.90;99.90;;;;;;5053379;28;20075;-67
2021/06/26 02:22:30;;;;;;;78.40;50.70;;;15.90;99.90;;;;;;5053382;28;20146;-67
2021/06/26 02:24:56;;;;;;;77.55;51.45;;;15.90;99.90;;;;;;5053317;28;20039;-67
2021/06/26 02:27:22;;;;;;;80.28;52.55;;;15.90;99.90;;;;;;5052765;28;20045;-67
2021/06/26 02:29:47;;;;;;;78.43;49.92;;;15.90;99.90;;;;;;5053026;28;20017;-68
2021/06/26 02:32:13;;;;;;;77.68;51.92;;;16.00;99.90;;;;;;5053281;28;20017;-67
2021/06/26 02:34:38;;;;;;;84.10;51.92;;;16.00;99.90;;;;;;5054588;28;20044;-68
2021/06/26 02:37:04;;;;;;;77.57;50.67;;;16.00;99.90;;;;;;5056905;28;20044;-67
2021/06/26 02:39:29;;;;;;;84.35;53.22;;;16.00;99.90;;;;;;5056882;28;20029;-67
2021/06/26 02:41:55;;;;;;;82.95;51.85;;;15.90;99.90;;;;;;5056553;28;20363;-67
2021/06/26 02:44:20;;;;;;;81.20;53.17;;;15.90;99.90;;;;;;5056269;28;20021;-68
2021/06/26 02:46:46;;;;;;;85.38;52.20;;;15.90;99.90;;;;;;5056129;28;20056;-68
2021/06/26 02:49:12;;;;;;;80.25;52.92;;;15.80;99.90;;;;;;5056379;28;20087;-67
2021/06/26 02:51:37;;;;;;;84.93;54.58;;;15.70;99.90;;;;;;5056329;28;20465;-67
2021/06/26 02:54:03;;;;;;;79.70;52.25;;;15.70;99.90;;;;;;5056565;28;20017;-68
2021/06/26 02:56:29;;;;;;;86.28;55.15;;;15.70;99.90;;;;;;5056512;28;20104;-67
2021/06/26 02:58:54;;;;;;;83.70;53.78;;;15.60;99.90;;;;;;5056484;28;20407;-67
2021/06/26 03:01:20;;;;;;;79.38;51.60;;;15.60;99.90;;;;;;5056242;28;20068;-67
2021/06/26 03:03:45;;;;;;;87.35;55.60;;;15.60;99.90;;;;;;5054951;28;20108;-68
2021/06/26 03:06:11;;;;;;;87.65;56.70;;;15.60;99.90;;;;;;5056380;28;20363;-67
2021/06/26 03:08:36;;;;;;;91.00;55.83;;;15.50;99.90;;;;;;5056219;28;20029;-67
2021/06/26 03:11:02;;;;;;;85.03;54.40;;;15.50;99.90;;;;;;5056264;28;20017;-67
2021/06/26 03:13:28;;;;;;;90.00;55.28;;;15.50;99.90;;;;;;5056221;28;20017;-67
2021/06/26 03:15:53;;;;;;;85.75;54.45;;;15.50;99.90;;;;;;5055009;28;20028;-68
2021/06/26 03:18:19;;;;;;;86.78;56.20;;;15.50;99.90;;;;;;5056143;28;20032;-68
2021/06/26 03:20:44;;;;;;;87.57;56.10;;;15.50;99.90;;;;;;5055485;28;20025;-68
2021/06/26 03:23:10;;;;;;;93.38;55.80;;;15.40;99.90;;;;;;5054869;28;20033;-67
2021/06/26 03:25:35;;;;;;;95.75;56.88;;;15.40;99.90;;;;;;5055959;28;20107;-67
2021/06/26 03:28:02;;;;;;;88.10;58.10;;;15.40;99.90;;;;;;5055191;28;20049;-67
2021/06/26 03:30:27;;;;;;;85.90;56.58;;;15.40;99.90;;;;;;5054744;28;20092;-67
2021/06/26 03:32:53;;;;;;;94.55;60.20;;;15.30;99.90;;;;;;5055848;28;20100;-67
2021/06/26 03:35:18;;;;;;;89.78;56.75;;;15.30;99.90;;;;;;5055837;28;20585;-67
2021/06/26 03:37:44;;;;;;;84.63;54.88;;;15.30;99.90;;;;;;5055763;28;20033;-67
2021/06/26 03:40:10;;;;;;;89.55;58.03;;;15.30;99.90;;;;;;5055453;28;20032;-67
2021/06/26 03:42:37;;;;;;;96.82;59.55;;;15.30;99.90;;;;;;5055124;28;20021;-67
2021/06/26 03:45:05;;;;;;;88.63;56.47;;;15.30;99.90;;;;;;5054455;28;20029;-67
2021/06/26 03:47:30;;;;;;;96.90;59.10;;;15.20;99.90;;;;;;5055279;28;20025;-67
2021/06/26 03:49:56;;;;;;;88.13;55.38;;;15.20;99.90;;;;;;5054361;28;20506;-67
2021/06/26 03:52:21;;;;;;;89.60;54.60;;;15.20;99.90;;;;;;5055169;28;20021;-67
2021/06/26 03:54:47;;;;;;;82.05;53.40;;;15.20;99.90;;;;;;5055161;28;20056;-68
2021/06/26 03:57:12;;;;;;;85.68;53.05;;;15.10;99.90;;;;;;5053945;28;20359;-67
2021/06/26 03:59:38;;;;;;;88.13;53.55;;;15.10;99.90;;;;;;5055299;28;20083;-68
2021/06/26 04:02:06;;;;;;;83.93;54.60;;;15.20;99.90;;;;;;5055013;28;20025;-67
2021/06/26 04:04:34;;;;;;;84.80;54.60;;;15.20;99.90;;;;;;5055234;28;20032;-67
2021/06/26 04:06:59;;;;;;;88.53;55.63;;;15.20;99.90;;;;;;5054593;28;20546;-67
2021/06/26 04:09:25;;;;;;;85.50;54.97;;;15.20;99.90;;;;;;5055100;28;20100;-66
2021/06/26 04:11:50;;;;;;;81.50;54.67;;;15.20;99.90;;;;;;5055017;28;20028;-66
2021/06/26 04:14:16;;;;;;;76.55;50.50;;;15.20;99.90;;;;;;5053555;28;20025;-67
2021/06/26 04:16:41;;;;;;;78.75;53.13;;;15.30;99.90;;;;;;5054665;28;20041;-67
2021/06/26 04:19:07;;;;;;;78.07;52.58;;;15.50;99.90;;;;;;5054967;28;20025;-68
2021/06/26 04:21:32;;;;;;;80.13;52.78;;;15.50;99.90;;;;;;5053351;28;20025;-67
2021/06/26 04:23:58;;;;;;;80.43;53.53;;;15.60;99.90;;;;;;5054607;28;20021;-67
2021/06/26 04:26:23;;;;;;;83.00;54.53;;;15.60;99.90;;;;;;5054653;28;20025;-67
2021/06/26 04:28:50;;;;;;;83.82;52.28;;;15.60;99.90;;;;;;5054238;28;20047;-68
2021/06/26 04:31:15;;;;;;;80.85;50.92;;;15.60;99.90;;;;;;5054511;28;20028;-67
2021/06/26 04:33:41;;;;;;;74.43;49.35;;;15.70;99.90;;;;;;5054746;28;20037;-67
2021/06/26 04:36:12;;;;;;;74.78;50.13;;;15.80;99.90;;;;;;5054404;28;20032;-67
2021/06/26 04:38:37;;;;;;;69.03;47.28;;;15.80;99.90;;;;;;5054626;28;20051;-67
2021/06/26 04:41:03;;;;;;;74.45;48.75;;;15.80;99.90;;;;;;5053045;28;20052;-67
2021/06/26 04:43:28;;;;;;;80.40;50.58;;;15.90;99.90;;;;;;5054568;28;20025;-67
2021/06/26 04:45:54;;;;;;;72.38;49.30;;;15.90;99.90;;;;;;5054520;28;20091;-68
2021/06/26 04:48:20;;;;;;;75.00;48.05;;;15.90;99.90;;;;;;5052924;28;20029;-67
2021/06/26 04:50:47;;;;;;;66.53;46.70;;;15.90;99.90;;;;;;5052990;28;20021;-68
2021/06/26 04:53:12;;;;;;;71.43;48.42;;;16.00;99.90;;;;;;5054323;28;20021;-67
2021/06/26 04:55:38;;;;;;;75.53;48.17;;;16.00;99.90;;;;;;5054029;28;20116;-67
2021/06/26 04:58:03;;;;;;;66.28;45.78;;;16.10;99.90;;;;;;5053866;28;20028;-67
2021/06/26 05:00:29;;;;;;;65.40;45.03;;;16.20;99.90;;;;;;5054274;28;20131;-67
2021/06/26 05:02:55;;;;;;;67.65;44.67;;;16.30;99.90;;;;;;5054233;28;20033;-67
2021/06/26 05:05:20;;;;;;;64.28;44.08;;;16.30;99.90;;;;;;5054204;28;20032;-67
2021/06/26 05:07:46;;;;;;;61.92;43.47;;;16.40;99.90;;;;;;5054032;28;20370;-67
2021/06/26 05:10:11;;;;;;;62.88;43.03;;;16.60;99.90;;;;;;5054058;28;20155;-68
2021/06/26 05:12:41;;;;;;;60.53;41.28;;;16.80;99.90;;;;;;5053775;28;20466;-67
2021/06/26 05:15:08;;;;;;;57.50;40.70;;;17.00;99.90;;;;;;5053553;28;20027;-68
2021/06/26 05:17:33;;;;;;;55.08;41.50;;;17.00;99.90;;;;;;5053994;28;20032;-68
2021/06/26 05:19:59;;;;;;;52.25;38.17;;;17.10;99.90;;;;;;5053721;28;20029;-68
2021/06/26 05:22:24;;;;;;;60.92;40.63;;;17.20;99.90;;;;;;5052784;28;20458;-68
2021/06/26 05:24:50;;;;;;;57.30;40.65;;;17.30;99.90;;;;;;5053625;28;20025;-68
2021/06/26 05:27:15;;;;;;;52.85;38.45;;;17.40;99.90;;;;;;5053164;28;20052;-68
2021/06/26 05:29:42;;;;;;;52.15;37.53;;;17.60;99.90;;;;;;5053830;28;20025;-68
2021/06/26 05:32:08;;;;;;;53.95;37.28;;;17.80;99.90;;;;;;5053310;28;20378;-68
2021/06/26 05:34:34;;;;;;;53.88;38.13;;;17.80;99.90;;;;;;5053565;28;20013;-68
2021/06/26 05:37:00;;;;;;;52.38;38.50;;;17.80;99.90;;;;;;5053208;28;20040;-67
2021/06/26 05:39:25;;;;;;;54.70;36.92;;;17.70;99.90;;;;;;5052545;28;20021;-68
2021/06/26 05:41:51;;;;;;;48.17;35.17;;;17.80;99.90;;;;;;5053772;28;20390;-68
2021/06/26 05:44:18;;;;;;;50.67;35.30;;;18.10;99.90;;;;;;5053413;28;20025;-68
2021/06/26 05:46:43;;;;;;;47.45;35.35;;;18.20;99.90;;;;;;5053347;28;20021;-68
2021/06/26 05:49:09;;;;;;;46.25;35.60;;;18.60;99.90;;;;;;5053403;28;20048;-68
2021/06/26 05:51:35;;;;;;;49.75;35.92;;;18.60;99.90;;;;;;5053612;28;20425;-68
2021/06/26 05:54:00;;;;;;;47.13;33.40;;;18.90;99.90;;;;;;5053665;28;20025;-68
2021/06/26 05:56:26;;;;;;;48.38;34.20;;;18.90;99.90;;;;;;5053583;28;20493;-68
2021/06/26 05:58:52;;;;;;;41.78;31.35;;;18.90;99.90;;;;;;5053284;28;20363;-68
2021/06/26 06:01:18;;;;;;;41.42;31.77;;;19.20;99.90;;;;;;5053588;28;20025;-68
2021/06/26 06:03:46;;;;;;;42.75;32.00;;;19.40;99.90;;;;;;5053457;28;20028;-68
2021/06/26 06:06:12;;;;;;;44.17;33.30;;;19.40;99.90;;;;;;5053417;28;20033;-68
2021/06/26 06:08:38;;;;;;;43.10;32.72;;;19.30;99.90;;;;;;5053049;28;20021;-68
2021/06/26 06:11:04;;;;;;;43.83;31.75;;;19.40;99.90;;;;;;5057103;28;20025;-68
2021/06/26 06:13:29;;;;;;;40.35;31.65;;;19.50;99.90;;;;;;5057144;28;20017;-68
2021/06/26 06:15:55;;;;;;;40.40;31.67;;;19.50;99.90;;;;;;5056880;28;20103;-68
2021/06/26 06:18:21;;;;;;;42.42;32.05;;;19.50;99.90;;;;;;5056885;28;20025;-68
2021/06/26 06:20:47;;;;;;;45.80;31.55;;;19.60;99.90;;;;;;5055933;28;20056;-68
2021/06/26 06:23:13;;;;;;;42.38;32.15;;;19.70;99.90;;;;;;5055968;28;20032;-68
2021/06/26 06:25:40;;;;;;;40.53;32.25;;;20.00;99.90;;;;;;5057022;28;20025;-67
2021/06/26 06:28:06;;;;;;;40.00;31.00;;;20.40;99.90;;;;;;5056309;28;20055;-67
2021/06/26 06:30:34;;;;;;;38.58;31.48;;;20.60;99.90;;;;;;5056923;28;20025;-66
2021/06/26 06:33:03;;;;;;;41.83;31.67;;;20.80;99.90;;;;;;5056687;28;20013;-66
2021/06/26 06:35:28;;;;;;;39.25;31.13;;;20.90;99.90;;;;;;5056825;28;20024;-67
2021/06/26 06:37:54;;;;;;;41.50;31.95;;;20.60;99.90;;;;;;5055301;28;20033;-66
2021/06/26 06:40:21;;;;;;;42.65;32.78;;;20.60;99.90;;;;;;5054974;28;20029;-67
2021/06/26 06:42:47;;;;;;;39.53;30.15;;;22.00;99.90;;;;;;5056849;28;20398;-68
2021/06/26 06:45:13;;;;;;;34.97;28.83;;;23.00;99.90;;;;;;5055563;28;20043;-65
2021/06/26 06:47:39;;;;;;;33.60;29.23;;;23.80;99.90;;;;;;5054760;28;20029;-66
2021/06/26 06:50:06;;;;;;;35.97;28.63;;;24.70;99.90;;;;;;5056575;28;20074;-66
2021/06/26 06:52:32;;;;;;;31.75;28.17;;;24.40;99.90;;;;;;5056530;28;20025;-65
2021/06/26 06:54:57;;;;;;;35.13;28.35;;;24.40;99.90;;;;;;5056229;28;20032;-66
2021/06/26 06:57:24;;;;;;;32.70;26.55;;;24.80;99.90;;;;;;5056396;28;20060;-65
2021/06/26 06:59:51;;;;;;;32.40;27.33;;;25.20;99.90;;;;;;5055013;28;20032;-66
2021/06/26 07:02:16;;;;;;;34.40;27.55;;;25.40;99.90;;;;;;5056116;28;20039;-68
2021/06/26 07:04:42;;;;;;;32.65;26.48;;;25.40;99.90;;;;;;5056090;28;20032;-68
2021/06/26 07:07:08;;;;;;;30.83;26.63;;;25.70;99.90;;;;;;5056008;28;20351;-68
2021/06/26 07:09:33;;;;;;;27.83;24.77;;;26.00;99.90;;;;;;5055775;28;20449;-67
2021/06/26 07:11:59;;;;;;;29.50;24.95;;;26.30;99.90;;;;;;5056303;28;20032;-68
2021/06/26 07:14:25;;;;;;;30.77;26.65;;;26.30;99.90;;;;;;5055707;28;20035;-68
2021/06/26 07:16:51;;;;;;;29.10;24.92;;;26.10;99.90;;;;;;5056189;28;20339;-67
2021/06/26 07:19:17;;;;;;;33.10;25.88;;;26.40;99.90;;;;;;5055594;28;20032;-67
2021/06/26 07:21:42;;;;;;;36.83;26.55;;;25.80;99.90;;;;;;5055779;28;20029;-67
2021/06/26 07:24:09;;;;;;;30.55;26.08;;;25.80;99.90;;;;;;5055917;28;20025;-67
2021/06/26 07:26:35;;;;;;;32.38;26.88;;;26.20;99.90;;;;;;5054221;28;20028;-67
2021/06/26 07:29:00;;;;;;;31.67;26.50;;;26.60;99.90;;;;;;5054192;28;20147;-68
2021/06/26 07:31:26;;;;;;;33.67;25.73;;;27.40;99.90;;;;;;5055274;28;20021;-68
2021/06/26 07:33:52;;;;;;;26.35;23.50;;;27.70;99.90;;;;;;5055846;28;20025;-68
2021/06/26 07:36:18;;;;;;;26.38;23.63;;;28.10;99.40;;;;;;5055731;28;20025;-68
2021/06/26 07:38:44;;;;;;;26.13;23.42;;;27.80;98.80;;;;;;5055493;28;20025;-68
2021/06/26 07:41:09;;;;;;;29.65;23.65;;;28.00;98.20;;;;;;5053816;28;20036;-68
2021/06/26 07:43:35;;;;;;;26.27;22.92;;;27.40;98.80;;;;;;5053748;28;20029;-68
2021/06/26 07:46:02;;;;;;;25.00;21.80;;;27.70;97.70;;;;;;5053847;28;20020;-68
2021/06/26 07:48:28;;;;;;;23.08;20.70;;;27.80;98.00;;;;;;5055312;28;20025;-67
2021/06/26 07:50:54;;;;;;;21.80;19.50;;;27.60;97.60;;;;;;5055510;28;20099;-67
2021/06/26 07:53:20;;;;;;;21.95;19.27;;;27.80;96.80;;;;;;5054012;28;20056;-68
2021/06/26 07:55:53;;;;;;;20.33;17.90;;;28.60;96.80;;;;;;5055024;28;20044;-68
2021/06/26 07:58:25;;;;;;;21.30;19.00;;;28.70;97.00;;;;;;5055282;28;20021;-66
2021/06/26 08:00:52;;;;;;;19.85;17.90;;;28.70;96.40;;;;;;5055344;28;20021;-67
2021/06/26 08:03:19;;;;;;;21.75;19.20;;;29.10;96.00;;;;;;5055001;28;20029;-67
2021/06/26 08:05:45;;;;;;;18.30;16.58;;;28.40;95.50;;;;;;5054964;28;20033;-67
2021/06/26 08:08:11;;;;;;;19.52;16.85;;;29.50;93.10;;;;;;5053619;28;20032;-66
2021/06/26 08:10:37;;;;;;;17.23;15.52;;;29.70;92.60;;;;;;5054783;28;20029;-67
2021/06/26 08:13:03;;;;;;;17.10;15.43;;;30.50;93.30;;;;;;5053255;28;20021;-66
2021/06/26 08:15:29;;;;;;;17.35;15.45;;;30.30;90.80;;;;;;5055081;28;20366;-67
2021/06/26 08:17:55;;;;;;;17.80;15.63;;;30.90;91.60;;;;;;5053189;28;20143;-67
2021/06/26 08:20:21;;;;;;;15.63;14.10;;;30.50;90.60;;;;;;5053045;28;20029;-67
2021/06/26 08:22:47;;;;;;;14.55;13.10;;;30.90;87.50;;;;;;5053800;28;20045;-67
2021/06/26 08:25:12;;;;;;;16.20;14.50;;;31.10;89.90;;;;;;5053112;28;20039;-67
2021/06/26 08:27:38;;;;;;;15.00;13.45;;;30.50;84.70;;;;;;5054101;28;20045;-67
2021/06/26 08:30:04;;;;;;;14.70;13.15;;;30.80;84.90;;;;;;5054356;28;20025;-68
2021/06/26 08:32:30;;;;;;;16.27;13.82;;;31.00;84.70;;;;;;5053691;28;20028;-67
2021/06/26 08:34:56;;;;;;;14.40;13.10;;;31.00;83.00;;;;;;5054362;28;20109;-67
2021/06/26 08:37:21;;;;;;;16.42;14.13;;;30.40;87.30;;;;;;5054575;28;20154;-67
2021/06/26 08:39:47;;;;;;;13.52;12.07;;;30.60;84.60;;;;;;5054568;28;20462;-67
2021/06/26 08:42:13;;;;;;;15.02;13.20;;;30.00;86.80;;;;;;5054524;28;20117;-67
2021/06/26 08:44:41;;;;;;;12.68;11.38;;;30.70;82.80;;;;;;5053289;28;20052;-67
2021/06/26 08:47:08;;;;;;;11.10;10.02;;;30.70;80.50;;;;;;5052948;28;20021;-67
2021/06/26 08:49:33;;;;;;;12.95;11.73;;;30.80;83.00;;;;;;5052926;28;20028;-67
2021/06/26 08:51:59;;;;;;;13.27;11.98;;;29.60;80.20;;;;;;5054247;28;20021;-67
2021/06/26 08:54:24;;;;;;;12.52;11.25;;;30.20;84.20;;;;;;5053201;28;20470;-67
2021/06/26 08:56:50;;;;;;;13.13;11.60;;;29.90;80.10;;;;;;5054303;28;20020;-67
2021/06/26 08:59:16;;;;;;;10.98;10.00;;;30.70;77.00;;;;;;5054127;28;20465;-67
2021/06/26 09:01:43;;;;;;;11.70;10.55;;;31.50;73.60;;;;;;5052722;28;20382;-67
2021/06/26 09:04:12;;;;;;;13.93;11.30;;;31.60;77.60;;;;;;5053134;28;20031;-67
2021/06/26 09:06:58;;;;;;;10.82;9.70;;;32.00;72.50;;;;;;5053781;28;20025;-67
2021/06/26 09:09:32;;;;;;;10.48;9.48;;;32.20;65.00;;;;;;5053448;28;20020;-67
2021/06/26 09:12:07;;;;;;;10.13;9.15;;;32.20;66.50;;;;;;5052330;28;20017;-67
2021/06/26 09:14:34;;;;;;;12.95;9.60;;;32.30;72.80;;;;;;5053967;28;20021;-67
2021/06/26 09:17:00;;;;;;;12.93;11.63;;;31.90;67.80;;;;;;5053710;28;20032;-67
2021/06/26 09:19:27;;;;;;;11.20;10.23;;;32.10;65.80;;;;;;5053902;28;20095;-67
2021/06/26 09:22:07;;;;;;;11.40;9.48;;;32.90;63.10;;;;;;5052883;28;20032;-67
2021/06/26 09:24:40;;;;;;;10.30;8.85;;;32.80;64.10;;;;;;5052492;28;20025;-67
2021/06/26 09:27:06;;;;;;;10.40;9.45;;;31.80;64.40;;;;;;5053240;28;20052;-67
2021/06/26 09:29:32;;;;;;;12.00;9.23;;;32.30;59.40;;;;;;5053844;28;20418;-67
2021/06/26 09:32:00;;;;;;;10.82;9.55;;;32.50;62.30;;;;;;5053201;28;20048;-67
2021/06/26 09:34:46;;;;;;;10.00;9.20;;;32.10;61.50;;;;;;5052424;28;20017;-67
2021/06/26 09:37:13;;;;;;;10.10;8.35;;;31.50;62.50;;;;;;5053154;28;20107;-67
2021/06/26 09:39:41;;;;;;;9.10;8.20;;;31.30;67.00;;;;;;5053712;28;20021;-68
2021/06/26 09:42:29;;;;;;;9.95;8.95;;;31.40;63.00;;;;;;5053714;28;20024;-67
2021/06/26 09:44:58;;;;;;;10.45;9.25;;;31.80;60.50;;;;;;5056800;28;20025;-67
2021/06/26 09:47:43;;;;;;;10.25;9.25;;;31.80;60.20;;;;;;5055801;28;20029;-69
2021/06/26 09:50:22;;;;;;;10.73;9.70;;;31.10;60.60;;;;;;5056210;28;20028;-69
2021/06/26 09:52:52;;;;;;;11.50;10.40;;;31.70;59.40;;;;;;5057729;28;20090;-69
2021/06/26 09:55:27;;;;;;;10.80;9.25;;;31.40;61.00;;;;;;5057736;28;20378;-67
2021/06/26 09:57:56;;;;;;;10.13;9.05;;;31.50;61.50;;;;;;5057572;28;20083;-69
2021/06/26 10:00:25;;;;;;;9.65;8.77;;;31.80;58.60;;;;;;5057571;28;20406;-69
2021/06/26 10:02:52;;;;;;;9.68;8.77;;;31.90;59.60;;;;;;5056128;28;20374;-69
2021/06/26 10:05:18;;;;;;;9.15;8.25;;;31.90;57.90;;;;;;5057485;28;20021;-69
2021/06/26 10:07:45;;;;;;;9.88;9.02;;;32.20;63.00;;;;;;5056894;28;20119;-69
2021/06/26 10:10:14;;;;;;;9.57;8.45;;;32.40;58.90;;;;;;5057395;28;20020;-69
2021/06/26 10:12:40;;;;;;;8.93;8.15;;;32.00;57.50;;;;;;5057376;28;20458;-67
2021/06/26 10:15:09;;;;;;;9.68;8.73;;;32.10;55.80;;;;;;5057062;28;20025;-69
2021/06/26 10:17:35;;;;;;;8.30;7.55;;;32.30;56.90;;;;;;5057252;28;20048;-69
2021/06/26 10:20:03;;;;;;;8.27;7.40;;;32.60;56.20;;;;;;5057230;28;20028;-69
2021/06/26 10:22:29;;;;;;;7.43;6.80;;;32.30;55.00;;;;;;5057223;28;20025;-69
2021/06/26 10:24:55;;;;;;;7.80;7.07;;;32.00;54.40;;;;;;5057227;28;20051;-69
2021/06/26 10:27:22;;;;;;;7.05;6.45;;;32.00;54.60;;;;;;5038457;28;20052;-69
2021/06/26 10:29:49;;;;;;;9.45;7.70;;;32.10;55.40;;;;;;5056768;28;20021;-69
2021/06/26 10:32:17;;;;;;;9.25;8.23;;;32.30;56.40;;;;;;5055187;28;20112;-69
2021/06/26 10:34:45;;;;;;;9.35;8.40;;;32.10;56.50;;;;;;5056917;28;20024;-69
2021/06/26 10:37:17;;;;;;;8.82;8.02;;;32.50;57.50;;;;;;5056907;28;20027;-68
2021/06/26 10:39:42;;;;;;;10.43;9.43;;;31.90;55.70;;;;;;5056660;28;20036;-69
2021/06/26 10:42:10;;;;;;;9.20;8.30;;;31.60;56.90;;;;;;5056540;28;20025;-68
2021/06/26 10:44:49;;;;;;;10.75;8.52;;;31.80;58.90;;;;;;5056783;28;20051;-68
2021/06/26 10:47:16;;;;;;;9.02;8.20;;;31.00;57.10;;;;;;5056664;28;20025;-68
2021/06/26 10:49:42;;;;;;;10.27;9.30;;;30.10;60.10;;;;;;5056696;28;20021;-68
2021/06/26 10:52:17;;;;;;;11.00;9.90;;;30.50;59.60;;;;;;5038240;28;20021;-68
2021/06/26 10:54:52;;;;;;;11.85;10.75;;;29.70;60.00;;;;;;5055335;28;20021;-68
2021/06/26 10:57:17;;;;;;;10.70;9.80;;;29.10;60.30;;;;;;5056017;28;20025;-68
2021/06/26 10:59:53;;;;;;;10.18;9.23;;;28.70;61.20;;;;;;5056438;28;20428;-68
2021/06/26 11:02:19;;;;;;;11.35;9.32;;;28.40;63.70;;;;;;5056215;28;20068;-68
2021/06/26 11:04:45;;;;;;;9.93;8.93;;;27.80;68.70;;;;;;5055103;28;20069;-68
2021/06/26 11:07:11;;;;;;;10.48;9.55;;;27.40;67.90;;;;;;5056025;28;20025;-68
2021/06/26 11:09:40;;;;;;;11.52;10.35;;;27.70;66.30;;;;;;5056336;28;20021;-68
2021/06/26 11:12:10;;;;;;;10.68;9.55;;;27.90;66.20;;;;;;5056044;28;20025;-68
2021/06/26 11:14:35;;;;;;;11.90;10.13;;;27.90;68.40;;;;;;5055032;28;20029;-67
2021/06/26 11:17:01;;;;;;;10.38;9.00;;;27.10;67.60;;;;;;5055854;28;20048;-67
2021/06/26 11:19:31;;;;;;;10.32;8.75;;;26.90;67.80;;;;;;5055780;28;20382;-68
2021/06/26 11:21:57;;;;;;;12.63;9.65;;;27.10;68.20;;;;;;5055551;28;20021;-68
2021/06/26 11:24:36;;;;;;;9.73;8.80;;;26.90;71.80;;;;;;5055832;28;20021;-68
2021/06/26 11:27:03;;;;;;;11.13;8.57;;;27.30;73.80;;;;;;5055632;28;20047;-68
2021/06/26 11:29:34;;;;;;;9.52;8.63;;;28.00;72.50;;;;;;5055709;28;20021;-68
2021/06/26 11:32:02;;;;;;;8.85;7.97;;;28.40;67.10;;;;;;5054123;28;20052;-67
2021/06/26 11:34:28;;;;;;;10.02;9.02;;;27.60;68.50;;;;;;5055307;28;20386;-67
2021/06/26 11:36:56;;;;;;;9.68;8.68;;;27.10;66.50;;;;;;5055309;28;20025;-67
2021/06/26 11:39:22;;;;;;;10.50;9.50;;;27.00;67.50;;;;;;5055431;28;20459;-67
2021/06/26 11:41:48;;;;;;;11.02;9.45;;;27.00;68.10;;;;;;5055698;28;20028;-67
2021/06/26 11:44:13;;;;;;;10.48;9.38;;;27.50;67.20;;;;;;5055638;28;20021;-67
2021/06/26 11:46:39;;;;;;;9.48;8.57;;;27.60;68.50;;;;;;5053807;28;20017;-67
2021/06/26 11:49:04;;;;;;;9.82;8.88;;;27.70;72.20;;;;;;5054980;28;20035;-68
2021/06/26 11:51:30;;;;;;;10.32;8.32;;;27.50;69.80;;;;;;5054396;28;20021;-67
2021/06/26 11:53:57;;;;;;;8.98;8.10;;;27.80;69.40;;;;;;5054273;28;20025;-68
2021/06/26 11:56:22;;;;;;;9.85;8.57;;;28.20;68.80;;;;;;5055122;28;20025;-68
2021/06/26 11:58:50;;;;;;;9.90;8.90;;;28.20;69.30;;;;;;5053978;28;20036;-67
2021/06/26 12:01:25;;;;;;;10.20;9.07;;;27.80;68.00;;;;;;5053520;28;20052;-68
2021/06/26 12:03:52;;;;;;;16.10;9.13;;;28.10;66.60;;;;;;5055020;28;20033;-68
2021/06/26 12:06:18;;;;;;;8.52;7.65;;;28.60;68.10;;;;;;5054409;28;20033;-68
2021/06/26 12:08:47;;;;;;;9.82;7.72;;;29.10;66.60;;;;;;5054549;28;20080;-68
2021/06/26 12:11:18;;;;;;;9.20;8.32;;;28.80;62.80;;;;;;5055101;28;20021;-68
2021/06/26 12:13:46;;;;;;;8.77;7.88;;;28.90;64.80;;;;;;5037044;28;20044;-68
2021/06/26 12:16:13;;;;;;;9.30;8.38;;;28.60;64.50;;;;;;5020388;28;20021;-68
2021/06/26 12:18:49;;;;;;;10.60;9.60;;;28.60;66.60;;;;;;5054714;28;20025;-68
2021/06/26 12:21:15;;;;;;;8.77;7.97;;;27.90;65.00;;;;;;5054311;28;20079;-67
2021/06/26 12:23:44;;;;;;;9.88;8.88;;;27.60;68.10;;;;;;5053482;28;20021;-67
2021/06/26 12:26:16;;;;;;;11.18;8.60;;;27.80;63.90;;;;;;5054785;28;20025;-68
2021/06/26 12:28:42;;;;;;;9.73;8.82;;;28.10;68.80;;;;;;5054095;28;20541;-67